This is the latest recevied weather packets stored in our database for station/object s55g-5. If no packets are shown the sender has not sent any weather packets the latest 10 day(s).
| Time | Temp. | Humidity | Pressure | Rain* | Wind** | Luminosity | Snow |
|---|---|---|---|---|---|---|---|
| 1777643644 | 22.22° C | 29% | 1025 hPa | 0 mm | - | - | - |
| 1777642698 | 22.78° C | 29% | 1025.3 hPa | 0 mm | - | - | - |
| 1777641484 | 22.22° C | 29% | 1025.4 hPa | 0 mm | - | - | - |
| 1777640944 | 23.33° C | 31% | 1025.5 hPa | 0 mm | - | - | - |
| 1777640404 | 22.78° C | 31% | 1025.8 hPa | 0 mm | - | - | - |
| 1777637343 | 21.67° C | 33% | 1026.4 hPa | 0 mm | - | - | - |
| 1777636939 | 21.67° C | 31% | 1026.3 hPa | 0 mm | - | - | - |
| 1777635499 | 20.56° C | 29% | 1026.7 hPa | 0 mm | - | - | - |
| 1777634284 | 20.56° C | 33% | 1027 hPa | 0 mm | - | - | - |
| 1777632844 | 20.56° C | 34% | 1027.3 hPa | 0 mm | - | - | - |
| 1777628704 | 18.89° C | 33% | 1027.9 hPa | 0 mm | - | - | - |
| 1777626004 | 18.89° C | 34% | 1028.2 hPa | 0 mm | - | - | - |
| 1777625777 | 18.33° C | 34% | 1028.1 hPa | 0 mm | - | - | - |
| 1777624563 | 17.78° C | 31% | 1028.2 hPa | 0 mm | - | - | - |
| 1777622944 | 16.67° C | 33% | 1028.3 hPa | 0 mm | - | - | - |
| 1777622404 | 16.67° C | 36% | 1028.6 hPa | 0 mm | - | - | - |
| 1777622044 | 15.56° C | 37% | 1028.7 hPa | 0 mm | - | - | - |
| 1777618804 | 13.33° C | 44% | 1028.6 hPa | 0 mm | - | - | - |
| 1777615744 | 10° C | 58% | 1028.1 hPa | 0 mm | - | - | - |
| 1777614844 | 9.44° C | 59% | 1028.4 hPa | 0 mm | - | - | - |
| 1777608004 | 2.78° C | 77% | 1027.7 hPa | 0 mm | - | - | - |
| 1777604179 | 3.89° C | 71% | 1027.7 hPa | 0 mm | - | - | - |
| 1777599364 | 6.11° C | 60% | 1027.6 hPa | 0 mm | - | - | - |
| 1777597744 | 8.33° C | 48% | 1027.5 hPa | 0 mm | - | - | - |
| 1777596304 | 7.78° C | 51% | 1027.3 hPa | 0 mm | - | - | - |
* Rain latest hour (hover to see other rain measurements)
** Current wind speed in m/s (hover to see current wind gust speed)